Accueil
METAR-TAF:

METAR-TAF

Aéroports :

Aérodrome de Logrogne

Logroño, Espagne

latitude: 42-27N, longitude: 002-20W, altitude: 353 m

Observation

Le bulletin a été fait il y a 30 minutes, à 01:30 UTC
Vent 9 kt de ouest
Température 7°C
Humidité 81%
Pression 1017 hPa
Visibilité 10 km ou plus
Nuages fragmentés à une hauteur de 3600 ft

METAR: LELO 120130Z AUTO 28009KT 9999 BKN036 07/04 Q1017

Heure: 03:00 (02:00 UTC)

Prévision

Le bulletin a été fait il y a 9 heures et 0 minutes, à 17:00 UTC
Prévision valable du 11 à 18 UTC au 12 à 03 UTC
Vent 15 kt de ouest/nord-ouest
Visibilité 10 km ou plus
Nuages fragmentés à une hauteur de 4000 ft
Probabilité 30% :
Temporairement
du 11 à 18 UTC au 11 à 21 UTC
Vent 15 kt de ouest/nord-ouest avec des rafales jusqu'à 26 kt
Visibilité: 5000 m
Nuages fragmentés à une hauteur de 1800 ft
bruine, pluie, brume

TAF: LELO 111700Z 1118/1203 29015KT 9999 BKN040 PROB30 TEMPO 1118/1121 30015G26KT 5000 DZRA BR BKN018

Observations et prévisions météorologiques de plus de 4000 aéroports (messages METAR et TAF).

Les stations disponibles sont représentées par des disques jaunes et rouges sur la carte.

Passer la souris dessus pour voir le nom de la station.

Cliquer dessus pour voir les observations et prévisions météorologiques.

Pour changer de carte: cliquez sur les boutons verts avec une croix noire pour zoomer, sur le bouton vert avec un tiret pour effectuer un zoom arrière, ou sur les flèches vertes pour les cartes adjacentes.


METAR-TAF: